< < Back
Terminal Aerodrome Forecast


Current Version              Previous Versions:   1  2  3  4  5  6  7  8  9  

Terminal Aerodrome Forecast

531
FTUS44 KBMX 271124
TAFTCL
TAF
KTCL 271124Z 2712/2812 03006KT P6SM BKN250
     FM271700 03010KT P6SM SCT250
     FM280300 05006KT P6SM OVC250=

Latest METAR

240
SAUS70 KWBC 271700 RRC
MTRTCL
METAR KTCL 271653Z 05010KT 10SM CLR 19/07 A2992 RMK AO2 SLP131
T01940067


USA.gov is the U.S. government's official web portal to all federal, state and local government web resources and services.